Longview, WA

6:18 PM PDT on August 28, 2014 (GMT -0700)
Eufaula Heights | Change Station
CLOSE
Current Station
Personal Weather Station
Location: Longview, WA
Elevation: 740 ft
Nearby Weather Stations

Elev 740 ft 46.21 °N, 123.05 °W | Updated 25 seconds ago

Clear
Clear
72.6 °F
Feels Like 74 °F
N
0.0
Wind Variable Wind from South
Gusts 1.0 mph

Today
High -- | Low -- °F
--% Chance of Precip.
Yesterday
High -- | Low -- °F
Precip. -- in
6:27 AM 7:58 PM
Waxing Crescent, 11% visible
Pressure 30.06 in
Visibility 10.0 miles
Clouds Clear
Heat Index 74 °F
Dew Point 64 °F
Humidity 74%
Rainfall 0.00 in
Snow Depth Not available.
UV 1 out of 12
Pollen 3.80 out of 12
Air Quality Not available.
Flu Activity Not available.
METAR KKLS 290115Z AUTO 29005KT 10SM CLR 25/15 A3006 RMK AO1

More Conditions Fewer Conditions

Pressure 30.06 in
Visibility 10.0 miles
Clouds Clear
Heat Index 74 °F
Dew Point 64 °F
Humidity 74%
Rainfall 0.00 in
Snow Depth Not available.
UV 1 out of 12
Pollen 3.80 out of 12
Air Quality Not available.
Flu Activity Not available.
METAR KKLS 290115Z AUTO 29005KT 10SM CLR 25/15 A3006 RMK AO1

More Conditions Fewer Conditions

10-Day Weather Forecast

Almanac

Astronomy

Aug. 28, 2014 Rise Set
Actual Time 6:27 AM PDT 7:58 PM PDT
Civil Twilight 5:56 AM PDT 8:29 PM PDT
Nautical Twilight 5:18 AM PDT 9:07 PM PDT
Astronomical Twilight 4:37 AM PDT 9:47 PM PDT
Moon 9:37 AM PDT (8/28) 9:11 PM PDT (8/28)
Length of Visible Light 14h 32m
Length of Day
13h 30m
Tomorrow will be 3m 6s shorter.
Waxing Crescent, 11% of the Moon is Illuminated
Today
Waxing Crescent
Sep 2
First Quarter
Sep 8
Full
Sep 15
Last Quarter
Sep 24
New

Today's Extremes

State Highs State Lows

Community

WunderPhotos

Upload Photos

1,748,126 photos uploaded!

Nearby

Snow Depth

Station Depth Elevation
Lone Pine 0 in 3800 ft
Spencer Meadow 0 in 3400 ft
Surprise Lakes 0 in 4250 ft
Meadows Pass 0 in 3500 ft
Olallie Meadows 2 in 3700 ft

Earthquake Activity

City Distance Mag. Time & Date
No recent earthquake activity has been reported nearby.
Minimum magnitude displayed is 2.5.

Coastal Water Temperatures

Place Temperature
Astoria, OR 71.1 °F
Westport, WA 55.9 °F

Nearby Weather Stations